createdAt,value
2017-06-03T00:00:52.610Z,11.17
2017-06-03T00:03:20.702Z,11.03
2017-06-03T00:05:48.777Z,11.80
2017-06-03T00:08:16.848Z,11.77
2017-06-03T00:10:44.926Z,12.30
2017-06-03T00:13:13.043Z,12.30
2017-06-03T00:15:41.172Z,14.00
2017-06-03T00:18:10.017Z,12.40
2017-06-03T00:20:38.107Z,11.87
2017-06-03T00:23:06.177Z,10.63
2017-06-03T00:25:34.272Z,11.60
2017-06-03T00:28:02.353Z,10.50
2017-06-03T00:30:30.418Z,12.33
2017-06-03T00:32:58.494Z,11.47
2017-06-03T00:35:26.568Z,12.77
2017-06-03T00:37:54.668Z,11.70
2017-06-03T00:40:22.736Z,13.67
2017-06-03T00:42:50.834Z,13.00
2017-06-03T00:45:18.908Z,12.97
2017-06-03T00:47:47.010Z,13.30
2017-06-03T00:50:15.105Z,12.57
2017-06-03T00:52:43.175Z,13.00
2017-06-03T00:55:11.256Z,13.27
2017-06-03T00:57:39.339Z,13.07
2017-06-03T01:00:07.444Z,12.77
2017-06-03T01:02:35.539Z,12.43
2017-06-03T01:05:03.643Z,11.80
2017-06-03T01:07:32.496Z,12.00
2017-06-03T01:10:00.576Z,13.13
2017-06-03T01:12:28.687Z,11.27
2017-06-03T01:14:57.534Z,12.30
2017-06-03T01:17:25.612Z,12.50
2017-06-03T01:19:53.687Z,12.37
2017-06-03T01:22:21.755Z,12.13
2017-06-03T01:24:49.856Z,11.47
2017-06-03T01:27:17.920Z,12.53
2017-06-03T01:29:46.003Z,11.23
2017-06-03T01:32:14.844Z,12.30
2017-06-03T01:34:42.919Z,13.30
2017-06-03T01:37:11.020Z,12.93
2017-06-03T01:39:39.108Z,12.00
2017-06-03T01:42:07.183Z,13.17
2017-06-03T01:44:36.036Z,13.03
2017-06-03T01:47:04.115Z,11.80
2017-06-03T01:49:32.208Z,13.10
2017-06-03T01:52:00.833Z,14.90
2017-06-03T01:54:28.896Z,13.87
2017-06-03T01:56:56.980Z,14.50
2017-06-03T01:59:25.047Z,14.67
2017-06-03T02:01:53.128Z,22.67
2017-06-03T02:04:21.201Z,22.73
2017-06-03T02:06:49.299Z,23.37
2017-06-03T02:09:17.808Z,21.13
2017-06-03T02:11:45.889Z,18.73
2017-06-03T02:14:13.974Z,16.97
2017-06-03T02:16:42.819Z,14.70
2017-06-03T02:19:10.899Z,14.00
2017-06-03T02:21:38.973Z,12.47
2017-06-03T02:24:07.064Z,12.80
2017-06-03T02:26:35.137Z,12.27
2017-06-03T02:29:03.223Z,12.40
2017-06-03T02:31:32.098Z,13.47
2017-06-03T02:34:00.173Z,12.87
2017-06-03T02:36:28.264Z,13.07
2017-06-03T02:38:57.101Z,12.10
2017-06-03T02:41:25.196Z,12.80
2017-06-03T02:43:53.267Z,12.77
2017-06-03T02:46:21.364Z,12.13
2017-06-03T02:48:49.431Z,12.27
2017-06-03T02:51:17.531Z,12.37
2017-06-03T02:53:45.607Z,12.63
2017-06-03T02:56:13.671Z,12.10
2017-06-03T02:58:41.752Z,13.23
2017-06-03T03:01:09.825Z,12.63
2017-06-03T03:03:37.916Z,12.63
2017-06-03T03:06:05.995Z,11.70
2017-06-03T03:08:34.075Z,11.90
2017-06-03T03:11:02.156Z,12.50
2017-06-03T03:13:30.259Z,13.03
2017-06-03T03:15:58.324Z,13.20
2017-06-03T03:18:26.397Z,13.53
2017-06-03T03:20:54.475Z,13.40
2017-06-03T03:23:22.543Z,13.13
2017-06-03T03:25:50.618Z,13.90
2017-06-03T03:28:18.692Z,14.60
2017-06-03T03:30:46.768Z,13.07
2017-06-03T03:33:15.617Z,13.10
2017-06-03T03:35:43.715Z,14.10
2017-06-03T03:38:11.881Z,12.57
2017-06-03T03:40:39.949Z,13.53
2017-06-03T03:43:08.028Z,13.87
2017-06-03T03:45:36.095Z,12.90
2017-06-03T03:48:04.183Z,12.83
2017-06-03T03:50:32.279Z,14.73
2017-06-03T03:53:00.359Z,13.87
2017-06-03T03:55:28.431Z,13.97
2017-06-03T03:57:56.514Z,13.30
2017-06-03T04:00:24.632Z,13.87
2017-06-03T04:02:52.699Z,14.00
2017-06-03T04:05:20.771Z,17.40
2017-06-03T04:07:48.844Z,19.33
2017-06-03T04:10:16.923Z,18.43
2017-06-03T04:12:44.992Z,15.50
2017-06-03T04:15:13.072Z,14.17
2017-06-03T04:17:41.147Z,14.40
2017-06-03T04:20:09.236Z,15.97
2017-06-03T04:22:37.308Z,13.87
2017-06-03T04:25:05.435Z,13.10
2017-06-03T04:27:33.517Z,14.20
2017-06-03T04:30:01.607Z,14.47
2017-06-03T04:32:29.688Z,13.93
2017-06-03T04:34:57.768Z,14.40
2017-06-03T04:37:25.848Z,14.43
2017-06-03T04:39:54.767Z,14.90
2017-06-03T04:42:22.857Z,14.50
2017-06-03T04:44:50.936Z,13.63
2017-06-03T04:47:19.008Z,15.70
2017-06-03T04:49:47.099Z,13.77
2017-06-03T04:52:15.167Z,14.47
2017-06-03T04:54:43.260Z,14.43
2017-06-03T04:57:11.331Z,14.27
2017-06-03T04:59:39.426Z,14.10
2017-06-03T05:02:07.503Z,13.20
2017-06-03T05:04:36.372Z,12.77
2017-06-03T05:07:04.452Z,12.80
2017-06-03T05:09:32.523Z,13.60
2017-06-03T05:12:00.607Z,12.07
2017-06-03T05:14:29.464Z,13.17
2017-06-03T05:16:57.547Z,12.80
2017-06-03T05:19:25.622Z,13.07
2017-06-03T05:21:53.707Z,13.30
2017-06-03T05:24:22.551Z,12.47
2017-06-03T05:26:50.643Z,13.20
2017-06-03T05:29:18.724Z,11.97
2017-06-03T05:31:46.799Z,12.40
2017-06-03T05:34:14.875Z,11.37
2017-06-03T05:36:42.954Z,12.27
2017-06-03T05:39:11.064Z,10.70
2017-06-03T05:41:39.131Z,11.33
2017-06-03T05:44:07.222Z,11.33
2017-06-03T05:46:35.295Z,11.23
2017-06-03T05:49:03.836Z,10.10
2017-06-03T05:51:32.672Z,8.60
2017-06-03T05:54:00.747Z,9.37
2017-06-03T05:56:28.832Z,9.07
2017-06-03T05:58:57.015Z,9.83
2017-06-03T06:01:25.099Z,12.10
2017-06-03T06:03:53.171Z,8.83
2017-06-03T06:06:21.250Z,7.57
2017-06-03T06:08:49.320Z,8.40
2017-06-03T06:11:17.408Z,7.53
2017-06-03T06:13:46.243Z,7.87
2017-06-03T06:16:14.315Z,8.20
2017-06-03T06:18:42.394Z,7.83
2017-06-03T06:21:10.472Z,7.80
2017-06-03T06:23:38.556Z,7.97
2017-06-03T06:26:06.625Z,7.73
2017-06-03T06:28:34.727Z,7.70
2017-06-03T06:31:02.808Z,7.70
2017-06-03T06:33:31.647Z,7.57
2017-06-03T06:35:59.730Z,7.47
2017-06-03T06:38:27.795Z,6.83
2017-06-03T06:40:55.886Z,7.00
2017-06-03T06:43:23.952Z,7.60
2017-06-03T06:45:52.040Z,6.80
2017-06-03T06:48:20.148Z,7.90
2017-06-03T06:50:48.251Z,8.30
2017-06-03T06:53:16.328Z,7.77
2017-06-03T06:55:44.391Z,7.73
2017-06-03T06:58:12.466Z,7.10
2017-06-03T07:00:40.556Z,7.90
2017-06-03T07:03:08.630Z,8.20
2017-06-03T07:05:36.704Z,7.60
2017-06-03T07:08:04.780Z,7.07
2017-06-03T07:10:32.871Z,7.63
2017-06-03T07:13:00.963Z,7.83
2017-06-03T07:15:29.799Z,8.30
2017-06-03T07:17:57.871Z,7.27
2017-06-03T07:20:25.960Z,8.63
2017-06-03T07:22:54.032Z,7.90
2017-06-03T07:25:22.098Z,7.90
2017-06-03T07:27:50.176Z,8.10
2017-06-03T07:30:18.263Z,8.80
2017-06-03T07:32:46.439Z,8.60
2017-06-03T07:35:14.535Z,8.30
2017-06-03T07:37:43.410Z,8.17
2017-06-03T07:40:11.544Z,8.07
2017-06-03T07:42:39.632Z,8.77
2017-06-03T07:45:07.707Z,8.93
2017-06-03T07:47:35.784Z,8.50
2017-06-03T07:50:03.847Z,8.70
2017-06-03T07:52:31.936Z,8.07
2017-06-03T07:55:00.011Z,8.07
2017-06-03T07:57:28.116Z,7.83
2017-06-03T07:59:56.192Z,8.13
2017-06-03T08:02:24.265Z,8.90
2017-06-03T08:04:52.339Z,8.60
2017-06-03T08:07:20.408Z,8.10
2017-06-03T08:09:48.488Z,8.47
2017-06-03T08:12:16.571Z,10.27
2017-06-03T08:14:44.671Z,9.40
2017-06-03T08:17:12.748Z,9.20
2017-06-03T08:19:40.852Z,9.10
2017-06-03T08:22:09.691Z,8.47
2017-06-03T08:24:37.756Z,9.03
2017-06-03T08:27:05.831Z,9.50
2017-06-03T08:29:33.909Z,9.97
2017-06-03T08:32:01.999Z,8.60
2017-06-03T08:34:30.077Z,8.47
2017-06-03T08:36:58.162Z,8.93
2017-06-03T08:39:26.243Z,8.53
2017-06-03T08:41:54.343Z,8.10
2017-06-03T08:44:22.415Z,8.10
2017-06-03T08:46:50.484Z,8.17
2017-06-03T08:49:18.557Z,7.83
2017-06-03T08:51:46.635Z,8.47
2017-06-03T08:54:14.754Z,7.30
2017-06-03T08:56:42.828Z,7.00
2017-06-03T08:59:10.904Z,7.07
2017-06-03T09:01:38.981Z,6.60
2017-06-03T09:04:07.136Z,7.60
2017-06-03T09:06:35.216Z,6.80
2017-06-03T09:09:03.299Z,6.97
2017-06-03T09:11:31.464Z,6.70
2017-06-03T09:13:59.540Z,6.90
2017-06-03T09:16:27.671Z,6.83
2017-06-03T09:18:55.911Z,6.50
2017-06-03T09:21:23.988Z,6.60
2017-06-03T09:23:52.052Z,6.37
2017-06-03T09:26:20.148Z,5.80
2017-06-03T09:28:48.216Z,6.20
2017-06-03T09:31:16.278Z,6.97
2017-06-03T09:33:45.127Z,6.80
2017-06-03T09:36:13.207Z,6.83
2017-06-03T09:38:41.283Z,6.67
2017-06-03T09:41:09.356Z,7.47
2017-06-03T09:43:37.431Z,7.10
2017-06-03T09:46:05.495Z,6.60
2017-06-03T09:48:33.767Z,6.30
2017-06-03T09:51:01.848Z,7.90
2017-06-03T09:53:29.923Z,7.00
2017-06-03T09:55:57.992Z,7.17
2017-06-03T09:58:26.063Z,7.60
2017-06-03T10:00:54.227Z,7.90
2017-06-03T10:03:22.315Z,6.60
2017-06-03T10:05:50.399Z,7.40
2017-06-03T10:08:18.476Z,6.93
2017-06-03T10:10:47.348Z,7.77
2017-06-03T10:13:15.419Z,8.17
2017-06-03T10:15:43.493Z,8.03
2017-06-03T10:18:11.568Z,8.60
2017-06-03T10:20:39.635Z,8.83
2017-06-03T10:23:07.717Z,9.90
2017-06-03T10:25:35.795Z,9.33
2017-06-03T10:28:03.959Z,9.00
2017-06-03T10:30:32.032Z,9.90
2017-06-03T10:33:00.128Z,8.50
2017-06-03T10:35:28.199Z,8.20
2017-06-03T10:37:57.112Z,9.53
2017-06-03T10:40:25.191Z,9.13
2017-06-03T10:42:53.267Z,10.00
2017-06-03T10:45:21.444Z,9.60
2017-06-03T10:47:49.521Z,10.40
2017-06-03T10:50:17.632Z,10.50
2017-06-03T10:52:45.725Z,19.17
2017-06-03T10:55:13.793Z,9.90
2017-06-03T10:57:41.879Z,11.27
2017-06-03T11:00:10.716Z,9.40
2017-06-03T11:02:38.799Z,9.10
2017-06-03T11:05:06.890Z,10.00
2017-06-03T11:07:35.063Z,10.67
2017-06-03T11:10:03.142Z,9.17
2017-06-03T11:12:31.224Z,9.13
2017-06-03T11:14:59.312Z,10.13
2017-06-03T11:17:28.172Z,12.77
2017-06-03T11:19:56.255Z,18.83
2017-06-03T11:22:24.343Z,16.50
2017-06-03T11:24:53.215Z,13.90
2017-06-03T11:27:21.291Z,10.40
2017-06-03T11:29:49.377Z,10.50
2017-06-03T11:32:17.462Z,9.80
2017-06-03T11:34:46.304Z,11.00
2017-06-03T11:37:14.392Z,8.73
2017-06-03T11:39:42.473Z,9.10
2017-06-03T11:42:10.555Z,8.50
2017-06-03T11:44:39.402Z,6.70
2017-06-03T11:47:07.481Z,7.87
2017-06-03T11:49:35.569Z,6.80
2017-06-03T11:52:03.675Z,7.70
2017-06-03T11:54:31.856Z,7.77
2017-06-03T11:57:00.695Z,7.80
2017-06-03T11:59:28.860Z,6.77
2017-06-03T12:01:56.947Z,6.23
2017-06-03T12:04:25.023Z,5.93
2017-06-03T12:06:53.097Z,5.77
2017-06-03T12:09:21.181Z,5.80
2017-06-03T12:11:49.265Z,5.67
2017-06-03T12:14:17.348Z,7.07
2017-06-03T12:16:45.429Z,6.30
2017-06-03T12:19:13.495Z,6.70
2017-06-03T12:21:42.347Z,6.90
2017-06-03T12:24:10.421Z,6.27
2017-06-03T12:26:38.877Z,5.27
2017-06-03T12:29:06.951Z,5.53
2017-06-03T12:31:35.169Z,5.70
2017-06-03T12:34:03.247Z,5.00
2017-06-03T12:36:31.346Z,5.63
2017-06-03T12:38:59.415Z,4.70
2017-06-03T12:41:27.480Z,5.20
2017-06-03T12:43:56.331Z,5.10
2017-06-03T12:46:24.412Z,5.00
2017-06-03T12:48:52.484Z,4.70
2017-06-03T12:51:20.554Z,4.70
2017-06-03T12:53:48.672Z,4.90
2017-06-03T12:56:16.743Z,5.03
2017-06-03T12:58:44.851Z,4.40
2017-06-03T13:01:12.937Z,5.27
2017-06-03T13:03:41.015Z,6.27
2017-06-03T13:06:09.119Z,5.80
2017-06-03T13:08:48.899Z,6.77
2017-06-03T13:11:16.975Z,5.57
2017-06-03T13:13:45.057Z,5.90
2017-06-03T13:16:13.144Z,6.47
2017-06-03T13:18:41.219Z,7.00
2017-06-03T13:21:09.313Z,6.40
2017-06-03T13:23:37.388Z,6.20
2017-06-03T13:26:05.463Z,5.77
2017-06-03T13:28:33.536Z,4.93
2017-06-03T13:31:02.388Z,5.37
2017-06-03T13:33:30.473Z,5.00
2017-06-03T13:35:58.546Z,5.80
2017-06-03T13:38:26.659Z,5.20
2017-06-03T13:40:54.740Z,5.83
2017-06-03T13:43:22.851Z,6.20
2017-06-03T13:45:50.924Z,5.53
2017-06-03T13:48:18.995Z,5.33
2017-06-03T13:50:47.156Z,5.53
2017-06-03T13:53:15.228Z,5.63
2017-06-03T13:55:43.328Z,5.20
2017-06-03T13:58:11.400Z,5.63
2017-06-03T14:00:39.484Z,5.10
2017-06-03T14:03:07.587Z,5.77
2017-06-03T14:05:36.424Z,5.63
2017-06-03T14:08:04.515Z,5.60
2017-06-03T14:10:32.604Z,5.83
2017-06-03T14:13:00.691Z,4.90
2017-06-03T14:15:28.780Z,6.77
2017-06-03T14:17:56.880Z,5.40
2017-06-03T14:20:24.955Z,5.33
2017-06-03T14:22:53.051Z,6.33
2017-06-03T14:25:21.151Z,5.53
2017-06-03T14:27:49.240Z,6.53
2017-06-03T14:30:17.416Z,5.07
2017-06-03T14:32:45.485Z,4.87
2017-06-03T14:35:13.561Z,7.57
2017-06-03T14:37:41.624Z,5.97
2017-06-03T14:40:09.812Z,5.53
2017-06-03T14:42:37.878Z,5.90
2017-06-03T14:45:05.956Z,6.87
2017-06-03T14:47:34.128Z,5.53
2017-06-03T14:50:02.244Z,6.53
2017-06-03T14:52:30.326Z,6.83
2017-06-03T14:54:58.397Z,8.50
2017-06-03T14:57:27.844Z,7.00
2017-06-03T14:59:56.687Z,5.30
2017-06-03T15:02:24.784Z,5.30
2017-06-03T15:04:53.624Z,5.90
2017-06-03T15:07:21.700Z,6.37
2017-06-03T15:09:49.783Z,7.07
2017-06-03T15:12:17.854Z,8.00
2017-06-03T15:14:46.059Z,7.67
2017-06-03T15:17:14.140Z,7.67
2017-06-03T15:19:42.211Z,7.50
2017-06-03T15:22:11.300Z,7.80
2017-06-03T15:24:39.400Z,7.03
2017-06-03T15:27:07.488Z,7.10
2017-06-03T15:29:35.635Z,7.13
2017-06-03T15:32:04.672Z,7.90
2017-06-03T15:34:32.747Z,10.10
2017-06-03T15:37:03.178Z,7.30
2017-06-03T15:39:31.247Z,7.27
2017-06-03T15:41:59.340Z,8.47
2017-06-03T15:44:27.524Z,8.63
2017-06-03T15:46:55.630Z,6.87
2017-06-03T15:49:23.704Z,7.10
2017-06-03T15:51:51.770Z,6.90
2017-06-03T15:54:20.697Z,7.03
2017-06-03T15:56:48.766Z,6.70
2017-06-03T15:59:16.848Z,7.40
2017-06-03T16:01:44.918Z,8.17
2017-06-03T16:04:13.010Z,6.57
2017-06-03T16:06:41.089Z,8.20
2017-06-03T16:09:09.163Z,7.07
2017-06-03T16:11:37.236Z,8.17
2017-06-03T16:14:05.305Z,9.20
2017-06-03T16:16:33.393Z,8.60
2017-06-03T16:19:01.463Z,7.30
2017-06-03T16:21:29.540Z,7.10
2017-06-03T16:23:57.611Z,6.23
2017-06-03T16:26:25.690Z,6.43
2017-06-03T16:28:53.770Z,8.13
2017-06-03T16:31:22.656Z,6.70
2017-06-03T16:33:50.743Z,7.07
2017-06-03T16:36:19.583Z,7.40
2017-06-03T16:38:47.668Z,7.73
2017-06-03T16:41:16.151Z,7.70
2017-06-03T16:43:44.263Z,7.30
2017-06-03T16:46:13.229Z,8.40
2017-06-03T16:48:41.303Z,7.97
2017-06-03T16:51:09.385Z,9.27
2017-06-03T16:53:37.443Z,9.20
2017-06-03T16:56:05.519Z,8.80
2017-06-03T16:58:33.591Z,8.23
2017-06-03T17:01:01.671Z,8.20
2017-06-03T17:03:29.858Z,8.40
2017-06-03T17:05:58.714Z,7.40
2017-06-03T17:08:26.823Z,7.83
2017-06-03T17:10:55.715Z,8.33
2017-06-03T17:13:24.588Z,8.33
2017-06-03T17:15:52.651Z,7.03
2017-06-03T17:18:20.728Z,7.93
2017-06-03T17:20:48.821Z,10.20
2017-06-03T17:23:17.681Z,10.73
2017-06-03T17:25:45.742Z,9.07
2017-06-03T17:28:13.827Z,8.40
2017-06-03T17:30:42.004Z,8.13
2017-06-03T17:33:10.144Z,9.07
2017-06-03T17:35:38.224Z,8.30
2017-06-03T17:38:06.303Z,8.00
2017-06-03T17:40:34.387Z,7.20
2017-06-03T17:43:02.607Z,11.87
2017-06-03T17:45:30.690Z,16.83
2017-06-03T17:47:58.776Z,13.60
2017-06-03T17:50:26.868Z,10.10
2017-06-03T17:52:54.951Z,14.97
2017-06-03T17:55:23.043Z,6.43
2017-06-03T17:57:51.116Z,9.20
2017-06-03T18:00:19.183Z,6.70
2017-06-03T18:02:47.259Z,7.33
2017-06-03T18:05:15.328Z,7.33
2017-06-03T18:07:43.416Z,8.90
2017-06-03T18:10:12.251Z,8.43
2017-06-03T18:12:40.332Z,10.37
2017-06-03T18:15:08.401Z,7.77
2017-06-03T18:17:36.506Z,8.47
2017-06-03T18:20:04.572Z,8.50
2017-06-03T18:22:32.655Z,12.87
2017-06-03T18:25:00.751Z,11.07
2017-06-03T18:27:35.218Z,11.00
2017-06-03T18:30:03.304Z,10.97
2017-06-03T18:32:31.380Z,10.53
2017-06-03T18:34:59.469Z,10.50
2017-06-03T18:37:27.600Z,10.13
2017-06-03T18:39:55.700Z,10.93
2017-06-03T18:42:23.782Z,11.43
2017-06-03T18:44:51.853Z,12.00
2017-06-03T18:47:19.939Z,10.87
2017-06-03T18:49:48.115Z,11.00
2017-06-03T18:52:16.200Z,10.23
2017-06-03T18:54:45.056Z,12.30
2017-06-03T18:57:13.167Z,14.97
2017-06-03T18:59:41.244Z,12.77
2017-06-03T19:02:10.172Z,10.97
2017-06-03T19:04:38.247Z,11.87
2017-06-03T19:07:06.315Z,12.40
2017-06-03T19:09:34.417Z,11.90
2017-06-03T19:12:02.507Z,13.10
2017-06-03T19:14:31.373Z,11.37
2017-06-03T19:16:59.453Z,11.90
2017-06-03T19:19:27.911Z,11.30
2017-06-03T19:21:55.990Z,11.27
2017-06-03T19:24:24.104Z,11.93
2017-06-03T19:26:52.984Z,15.17
2017-06-03T19:29:21.065Z,16.33
2017-06-03T19:31:49.142Z,16.70
2017-06-03T19:34:18.203Z,16.27
2017-06-03T19:36:46.295Z,13.90
2017-06-03T19:39:14.375Z,13.67
2017-06-03T19:41:42.455Z,15.90
2017-06-03T19:44:11.296Z,13.80
2017-06-03T19:46:39.412Z,13.40
2017-06-03T19:49:07.534Z,14.30
2017-06-03T19:51:35.612Z,16.20
2017-06-03T19:54:03.719Z,13.80
2017-06-03T19:56:32.577Z,45.90
2017-06-03T19:59:00.659Z,24.40
2017-06-03T20:01:28.742Z,16.13
2017-06-03T20:03:56.845Z,15.23
2017-06-03T20:06:25.710Z,18.63
2017-06-03T20:08:53.815Z,18.60
2017-06-03T20:11:22.656Z,17.57
2017-06-03T20:13:50.728Z,21.50
2017-06-03T20:16:18.848Z,20.63
2017-06-03T20:18:47.684Z,14.20
2017-06-03T20:21:15.776Z,13.17
2017-06-03T20:23:43.847Z,11.63
2017-06-03T20:26:11.999Z,12.33
2017-06-03T20:28:40.088Z,12.60
2017-06-03T20:31:08.183Z,11.67
2017-06-03T20:33:36.261Z,13.83
2017-06-03T20:36:04.342Z,14.00
2017-06-03T20:38:33.191Z,11.83
2017-06-03T20:41:01.287Z,14.53
2017-06-03T20:43:29.360Z,21.20
2017-06-03T20:45:57.446Z,17.23
2017-06-03T20:48:25.535Z,11.30
2017-06-03T20:50:54.387Z,11.57
2017-06-03T20:53:22.455Z,11.43
2017-06-03T20:55:50.584Z,11.50
2017-06-03T20:58:18.669Z,12.33
2017-06-03T21:00:46.761Z,13.17
2017-06-03T21:03:14.841Z,12.90
2017-06-03T21:05:42.919Z,14.40
2017-06-03T21:08:11.076Z,14.73
2017-06-03T21:10:39.185Z,44.27
2017-06-03T21:13:07.268Z,96.27
2017-06-03T21:15:36.117Z,83.73
2017-06-03T21:18:04.219Z,105.97
2017-06-03T21:20:32.309Z,40.33
2017-06-03T21:23:00.401Z,38.87
2017-06-03T21:25:28.507Z,17.00
2017-06-03T21:27:56.592Z,29.40
2017-06-03T21:30:24.700Z,43.33
2017-06-03T21:32:53.563Z,120.97
2017-06-03T21:35:21.660Z,81.70
2017-06-03T21:37:49.734Z,47.57
2017-06-03T21:40:20.134Z,15.93
2017-06-03T21:42:48.208Z,26.20
2017-06-03T21:45:16.299Z,35.27
2017-06-03T21:47:44.371Z,53.23
2017-06-03T21:50:12.463Z,25.33
2017-06-03T21:52:41.311Z,37.97
2017-06-03T21:55:09.399Z,65.87
2017-06-03T21:57:37.488Z,79.60
2017-06-03T22:00:06.335Z,22.53
2017-06-03T22:02:34.454Z,26.90
2017-06-03T22:05:03.308Z,28.27
2017-06-03T22:07:31.483Z,27.83
2017-06-03T22:09:59.559Z,12.60
2017-06-03T22:12:27.643Z,13.63
2017-06-03T22:14:55.715Z,13.97
2017-06-03T22:17:23.800Z,14.60
2017-06-03T22:19:51.944Z,20.83
2017-06-03T22:22:20.020Z,12.80
2017-06-03T22:24:48.108Z,12.50
2017-06-03T22:27:16.290Z,21.57
2017-06-03T22:29:45.276Z,11.00
2017-06-03T22:32:13.348Z,12.17
2017-06-03T22:34:41.525Z,11.40
2017-06-03T22:37:09.600Z,11.23
2017-06-03T22:39:37.668Z,10.60
2017-06-03T22:42:05.753Z,10.10
2017-06-03T22:44:33.845Z,11.40
2017-06-03T22:47:02.016Z,12.50
2017-06-03T22:49:31.050Z,10.57
2017-06-03T22:51:59.132Z,10.20
2017-06-03T22:54:27.203Z,10.40
2017-06-03T22:56:55.331Z,11.53
2017-06-03T22:59:23.404Z,12.27
2017-06-03T23:01:51.475Z,14.97
2017-06-03T23:04:20.319Z,13.23
2017-06-03T23:06:48.395Z,14.23
2017-06-03T23:09:16.479Z,13.67
2017-06-03T23:11:44.555Z,15.67
2017-06-03T23:14:12.631Z,17.03
2017-06-03T23:16:40.699Z,18.97
2017-06-03T23:19:08.804Z,21.53
2017-06-03T23:21:36.877Z,20.53
2017-06-03T23:24:05.724Z,17.20
2017-06-03T23:26:33.800Z,17.00
2017-06-03T23:29:01.909Z,19.00
2017-06-03T23:31:29.993Z,17.70
2017-06-03T23:33:58.152Z,14.13
2017-06-03T23:36:26.259Z,13.90
2017-06-03T23:38:54.347Z,12.53
2017-06-03T23:41:22.423Z,13.37
2017-06-03T23:43:50.507Z,14.60
2017-06-03T23:46:18.584Z,13.67
2017-06-03T23:48:46.675Z,12.47
2017-06-03T23:51:14.940Z,13.80
2017-06-03T23:53:43.028Z,14.27
2017-06-03T23:56:11.112Z,13.73
2017-06-03T23:58:39.976Z,14.30
